Time;durP1;ratioP1;P1;durP2;ratioP2;P2;SDS_P1;SDS_P2;PMS_P1;PMS_P2;Temp;Humidity;BMP_temperature;BMP_pressure;BME280_temperature;BME280_humidity;BME280_pressure;Samples;Min_cycle;Max_cycle;Signal;HPM_P1;HPM_P2
2023/09/09 00:02:24;;;;;;;12.10;9.37;;;18.10;99.90;;;;;;5056660;28;20424;-80
2023/09/09 00:04:54;;;;;;;13.87;10.00;;;18.00;99.90;;;;;;5056511;28;20442;-80
2023/09/09 00:07:21;;;;;;;10.23;9.13;;;18.00;99.90;;;;;;5056590;28;20446;-81
2023/09/09 00:09:48;;;;;;;13.20;9.97;;;17.90;99.90;;;;;;5056071;28;20497;-81
2023/09/09 00:12:16;;;;;;;14.20;9.47;;;17.90;99.90;;;;;;5055999;28;20502;-79
2023/09/09 00:14:43;;;;;;;12.80;9.40;;;17.80;99.90;;;;;;5055935;28;20431;-81
2023/09/09 00:17:09;;;;;;;16.43;10.30;;;17.70;99.90;;;;;;5056084;28;20427;-78
2023/09/09 00:19:36;;;;;;;17.30;11.60;;;17.60;99.90;;;;;;5056718;28;20461;-81
2023/09/09 00:22:03;;;;;;;11.40;10.00;;;17.50;99.90;;;;;;5056275;28;20439;-81
2023/09/09 00:24:30;;;;;;;12.33;9.97;;;17.50;99.90;;;;;;5056530;28;20420;-81
2023/09/09 00:26:59;;;;;;;16.93;10.23;;;17.50;99.90;;;;;;5055854;28;20437;-79
2023/09/09 00:29:27;;;;;;;15.07;9.80;;;17.60;99.90;;;;;;5056253;28;20457;-79
2023/09/09 00:31:54;;;;;;;12.60;9.50;;;17.40;99.90;;;;;;5056317;28;20507;-78
2023/09/09 00:34:21;;;;;;;12.20;9.27;;;17.30;99.90;;;;;;5056540;28;20453;-81
2023/09/09 00:36:48;;;;;;;13.90;9.10;;;17.30;99.90;;;;;;5056189;28;20434;-81
2023/09/09 00:39:15;;;;;;;23.70;10.47;;;17.30;99.90;;;;;;5056553;28;20436;-80
2023/09/09 00:41:41;;;;;;;16.60;9.63;;;17.20;99.90;;;;;;5048810;28;20434;-80
2023/09/09 00:44:09;;;;;;;15.37;9.30;;;17.20;99.90;;;;;;5056137;28;20412;-81
2023/09/09 00:46:37;;;;;;;12.30;9.43;;;17.20;99.90;;;;;;5056298;28;20445;-80
2023/09/09 00:49:04;;;;;;;13.03;9.27;;;17.20;99.90;;;;;;5051000;28;20450;-80
2023/09/09 00:51:32;;;;;;;18.00;10.07;;;17.20;99.90;;;;;;5056507;28;20451;-80
2023/09/09 00:53:58;;;;;;;12.17;9.10;;;17.20;99.90;;;;;;5056116;28;20451;-82
2023/09/09 00:56:25;;;;;;;14.30;9.50;;;17.20;99.90;;;;;;5055646;28;20505;-81
2023/09/09 00:58:52;;;;;;;14.87;9.43;;;17.20;99.90;;;;;;5058500;28;20465;-81
2023/09/09 01:01:18;;;;;;;14.40;9.87;;;17.20;99.90;;;;;;5059861;28;20412;-82
2023/09/09 01:03:51;;;;;;;15.63;9.83;;;17.10;99.90;;;;;;5060526;28;20456;-81
2023/09/09 01:06:19;;;;;;;17.50;10.17;;;17.10;99.90;;;;;;5060423;28;20411;-81
2023/09/09 01:08:45;;;;;;;17.37;10.10;;;17.10;99.90;;;;;;5060479;28;20456;-81
2023/09/09 01:11:12;;;;;;;14.53;9.30;;;17.10;99.90;;;;;;5060389;28;20408;-80
2023/09/09 01:13:39;;;;;;;17.67;10.67;;;17.10;99.90;;;;;;5060257;28;20467;-80
2023/09/09 01:16:07;;;;;;;16.60;10.07;;;17.10;99.90;;;;;;5060252;28;20428;-81
2023/09/09 01:18:34;;;;;;;14.20;9.90;;;17.00;99.90;;;;;;5060240;28;20412;-81
2023/09/09 01:21:05;;;;;;;12.57;10.07;;;17.00;99.90;;;;;;5060269;28;20491;-80
2023/09/09 01:23:34;;;;;;;16.33;10.83;;;17.00;99.90;;;;;;5060264;28;20412;-81
2023/09/09 01:26:01;;;;;;;13.40;10.17;;;16.90;99.90;;;;;;5059761;28;20423;-81
2023/09/09 01:28:28;;;;;;;24.40;12.50;;;16.90;99.90;;;;;;5060303;28;20548;-81
2023/09/09 01:30:56;;;;;;;18.80;10.53;;;17.00;99.90;;;;;;5059943;28;20444;-81
2023/09/09 01:33:23;;;;;;;17.33;9.90;;;16.80;99.90;;;;;;5060150;28;20455;-81
2023/09/09 01:35:49;;;;;;;16.20;9.93;;;16.80;99.90;;;;;;5059697;28;20420;-82
2023/09/09 01:38:16;;;;;;;17.70;10.60;;;16.70;99.90;;;;;;5059740;28;20407;-82
2023/09/09 01:40:44;;;;;;;13.70;10.57;;;16.70;99.90;;;;;;5059558;28;20431;-80
2023/09/09 01:43:11;;;;;;;11.70;10.07;;;16.60;99.90;;;;;;5059843;28;20407;-81
2023/09/09 01:45:37;;;;;;;14.10;11.20;;;16.60;99.90;;;;;;5059400;28;20947;-81
2023/09/09 01:48:05;;;;;;;13.97;10.77;;;16.50;99.90;;;;;;5054347;28;20432;-81
2023/09/09 01:50:32;;;;;;;13.17;10.40;;;16.50;99.90;;;;;;5059762;28;20442;-80
2023/09/09 01:52:59;;;;;;;15.30;10.70;;;16.50;99.90;;;;;;5059207;28;20603;-79
2023/09/09 01:55:26;;;;;;;14.90;10.60;;;16.50;99.90;;;;;;5058867;28;20442;-81
2023/09/09 01:57:54;;;;;;;11.23;9.40;;;16.50;99.90;;;;;;5057488;28;20423;-81
2023/09/09 02:00:21;;;;;;;15.03;9.63;;;16.40;99.90;;;;;;5057364;28;20455;-78
2023/09/09 02:02:48;;;;;;;13.57;9.30;;;16.40;99.90;;;;;;5057860;28;20406;-81
2023/09/09 02:05:14;;;;;;;15.00;10.00;;;16.40;99.90;;;;;;5057673;28;20449;-80
2023/09/09 02:07:41;;;;;;;15.67;10.20;;;16.40;99.90;;;;;;5057340;28;20478;-79
2023/09/09 02:10:08;;;;;;;15.90;10.83;;;16.30;99.90;;;;;;5054966;28;20436;-80
2023/09/09 02:12:35;;;;;;;14.90;10.60;;;16.30;99.90;;;;;;5054300;28;20448;-82
2023/09/09 02:15:05;;;;;;;18.63;11.00;;;16.30;99.90;;;;;;5059167;28;20420;-79
2023/09/09 02:17:32;;;;;;;14.17;11.27;;;16.30;99.90;;;;;;5058939;28;20427;-81
2023/09/09 02:19:58;;;;;;;16.23;10.90;;;16.20;99.90;;;;;;5058223;28;20449;-81
2023/09/09 02:22:25;;;;;;;17.03;11.43;;;16.20;99.90;;;;;;5055928;28;20503;-80
2023/09/09 02:24:55;;;;;;;14.50;11.60;;;16.20;99.90;;;;;;5054219;28;20541;-80
2023/09/09 02:27:22;;;;;;;14.20;12.27;;;16.10;99.90;;;;;;5053809;28;20431;-81
2023/09/09 02:29:49;;;;;;;14.43;10.60;;;16.10;99.90;;;;;;5054758;28;20451;-79
2023/09/09 02:32:18;;;;;;;13.53;11.30;;;16.20;99.90;;;;;;5056504;28;20431;-81
2023/09/09 02:34:44;;;;;;;14.53;10.57;;;16.20;99.90;;;;;;5058351;28;20502;-82
2023/09/09 02:37:14;;;;;;;18.37;10.73;;;16.10;99.90;;;;;;5058577;28;20415;-79
2023/09/09 02:39:41;;;;;;;14.53;11.03;;;16.10;99.90;;;;;;5058675;28;20488;-79
2023/09/09 02:42:08;;;;;;;13.97;10.80;;;16.20;99.90;;;;;;5058432;28;20424;-79
2023/09/09 02:44:35;;;;;;;15.60;9.97;;;16.20;99.90;;;;;;5058253;28;20431;-80
2023/09/09 02:47:01;;;;;;;14.63;10.77;;;16.10;99.90;;;;;;5057911;28;20423;-81
2023/09/09 02:49:30;;;;;;;15.00;11.40;;;16.20;99.90;;;;;;5053268;28;20456;-83
2023/09/09 02:51:56;;;;;;;22.77;11.23;;;16.20;99.90;;;;;;5058281;28;20461;-83
2023/09/09 02:54:23;;;;;;;12.93;10.60;;;16.10;99.90;;;;;;5058320;28;20459;-81
2023/09/09 02:56:50;;;;;;;19.40;11.03;;;16.10;99.90;;;;;;5057432;28;20415;-80
2023/09/09 02:59:16;;;;;;;16.70;10.93;;;16.10;99.90;;;;;;5050885;28;20531;-81
2023/09/09 03:01:43;;;;;;;16.70;11.87;;;16.10;99.90;;;;;;5058124;28;20419;-81
2023/09/09 03:04:10;;;;;;;14.00;11.43;;;16.10;99.90;;;;;;5058565;28;20528;-83
2023/09/09 03:06:38;;;;;;;17.00;11.77;;;16.10;99.90;;;;;;5058043;28;20466;-83
2023/09/09 03:09:06;;;;;;;15.30;11.80;;;16.10;99.90;;;;;;5058087;28;20456;-83
2023/09/09 03:11:33;;;;;;;19.63;11.60;;;16.10;99.90;;;;;;5057815;28;20428;-80
2023/09/09 03:14:00;;;;;;;15.37;11.47;;;16.10;99.90;;;;;;5057830;28;20660;-82
2023/09/09 03:16:26;;;;;;;22.43;12.57;;;16.10;99.90;;;;;;5058008;28;20432;-81
2023/09/09 03:18:53;;;;;;;18.03;10.83;;;16.10;99.90;;;;;;5050026;28;20433;-80
2023/09/09 03:21:20;;;;;;;15.60;11.63;;;16.00;99.90;;;;;;5056871;28;20460;-82
2023/09/09 03:23:48;;;;;;;18.63;11.83;;;16.10;99.90;;;;;;5049584;28;20434;-82
2023/09/09 03:26:18;;;;;;;18.70;12.17;;;16.00;99.90;;;;;;5057798;28;20450;-81
2023/09/09 03:28:45;;;;;;;17.50;11.70;;;15.90;99.90;;;;;;5057568;28;20453;-80
2023/09/09 03:31:12;;;;;;;17.50;11.73;;;16.10;99.90;;;;;;5057726;28;20410;-80
2023/09/09 03:33:39;;;;;;;15.83;11.50;;;16.10;99.90;;;;;;5057664;28;20493;-80
2023/09/09 03:36:06;;;;;;;16.00;11.70;;;15.90;99.90;;;;;;5056989;28;20416;-82
2023/09/09 03:38:33;;;;;;;15.20;11.43;;;15.90;99.90;;;;;;5057432;28;20462;-81
2023/09/09 03:41:01;;;;;;;15.40;12.20;;;15.90;99.90;;;;;;5049075;28;20412;-80
2023/09/09 03:43:28;;;;;;;15.37;11.60;;;15.90;99.90;;;;;;5049243;28;20438;-80
2023/09/09 03:45:55;;;;;;;14.83;11.40;;;16.00;99.90;;;;;;5057295;28;20451;-83
2023/09/09 03:48:22;;;;;;;16.43;11.20;;;15.90;99.90;;;;;;5052134;28;20434;-81
2023/09/09 03:50:49;;;;;;;17.20;11.23;;;15.90;99.90;;;;;;5056986;28;20444;-81
2023/09/09 03:53:16;;;;;;;15.70;11.53;;;15.90;99.90;;;;;;5057000;28;20441;-82
2023/09/09 03:55:43;;;;;;;21.13;11.43;;;15.90;99.90;;;;;;5056842;28;20438;-80
2023/09/09 03:58:11;;;;;;;17.57;11.80;;;15.80;99.90;;;;;;5057066;28;20452;-80
2023/09/09 04:00:37;;;;;;;18.03;11.67;;;15.80;99.90;;;;;;5056755;28;20496;-79
2023/09/09 04:03:04;;;;;;;21.37;12.73;;;15.80;99.90;;;;;;5056812;28;20432;-81
2023/09/09 04:05:31;;;;;;;14.70;10.60;;;15.80;99.90;;;;;;5056662;28;20428;-82
2023/09/09 04:08:03;;;;;;;14.30;10.93;;;15.80;99.90;;;;;;5056919;28;20445;-82
2023/09/09 04:10:29;;;;;;;14.77;10.83;;;15.80;99.90;;;;;;5056698;28;20463;-83
2023/09/09 04:12:56;;;;;;;17.70;10.70;;;15.80;99.90;;;;;;5056784;28;20455;-80
2023/09/09 04:15:24;;;;;;;17.73;11.10;;;15.80;99.90;;;;;;5056276;28;20459;-80
2023/09/09 04:17:51;;;;;;;13.47;10.97;;;15.70;99.90;;;;;;5056339;28;20424;-80
2023/09/09 04:20:18;;;;;;;15.10;11.40;;;15.50;99.90;;;;;;5056403;28;20466;-80
2023/09/09 04:22:44;;;;;;;14.50;10.70;;;15.60;99.90;;;;;;5055797;28;20427;-76
2023/09/09 04:25:11;;;;;;;15.10;10.70;;;15.50;99.90;;;;;;5056439;28;20424;-81
2023/09/09 04:27:38;;;;;;;16.63;10.50;;;15.60;99.90;;;;;;5056548;28;20425;-80
2023/09/09 04:30:05;;;;;;;14.50;11.90;;;15.50;99.90;;;;;;5056491;28;20474;-81
2023/09/09 04:32:34;;;;;;;17.90;11.10;;;15.50;99.90;;;;;;5056491;28;20453;-81
2023/09/09 04:35:01;;;;;;;29.93;11.23;;;15.50;99.90;;;;;;5056097;28;20559;-80
2023/09/09 04:37:30;;;;;;;15.03;10.33;;;15.60;99.90;;;;;;5056664;28;20431;-81
2023/09/09 04:39:56;;;;;;;17.33;10.73;;;15.30;99.90;;;;;;5056343;28;20859;-80
2023/09/09 04:42:23;;;;;;;15.27;11.20;;;15.40;99.90;;;;;;5056010;28;20441;-80
2023/09/09 04:44:50;;;;;;;12.50;10.87;;;15.20;99.90;;;;;;5055941;28;20465;-81
2023/09/09 04:47:17;;;;;;;17.43;10.37;;;15.40;99.90;;;;;;5054940;28;20453;-82
2023/09/09 04:49:45;;;;;;;14.77;10.60;;;15.30;99.90;;;;;;5044684;28;20446;-80
2023/09/09 04:52:12;;;;;;;15.93;11.50;;;15.30;99.90;;;;;;5056690;28;20472;-81
2023/09/09 04:54:38;;;;;;;14.87;10.80;;;15.30;99.90;;;;;;5056783;28;20481;-80
2023/09/09 04:57:05;;;;;;;12.70;10.10;;;15.50;99.90;;;;;;5056041;28;20464;-81
2023/09/09 04:59:33;;;;;;;13.50;10.60;;;15.40;99.90;;;;;;5055287;28;20921;-77
2023/09/09 05:02:00;;;;;;;13.13;10.60;;;15.40;99.90;;;;;;5055179;28;20443;-80
2023/09/09 05:04:26;;;;;;;11.87;10.23;;;15.30;99.90;;;;;;5055232;28;20464;-79
2023/09/09 05:06:54;;;;;;;13.27;10.90;;;15.40;99.90;;;;;;5055990;28;20441;-81
2023/09/09 05:09:21;;;;;;;15.17;11.70;;;15.30;99.90;;;;;;5056158;28;20472;-81
2023/09/09 05:11:48;;;;;;;19.67;10.23;;;15.40;99.90;;;;;;5055652;28;20453;-79
2023/09/09 05:14:14;;;;;;;13.63;11.73;;;15.40;99.90;;;;;;5056241;28;20502;-81
2023/09/09 05:16:41;;;;;;;18.43;11.07;;;15.40;99.90;;;;;;5055716;28;20807;-81
2023/09/09 05:19:09;;;;;;;14.50;10.73;;;15.40;99.90;;;;;;5055894;28;20509;-80
2023/09/09 05:21:35;;;;;;;13.10;10.60;;;15.30;99.90;;;;;;5055734;28;20453;-81
2023/09/09 05:24:04;;;;;;;12.80;10.23;;;15.50;99.90;;;;;;5038606;28;20458;-76
2023/09/09 05:26:30;;;;;;;15.07;11.00;;;15.40;99.90;;;;;;5030772;28;21011;-76
2023/09/09 05:28:59;;;;;;;12.17;10.67;;;15.40;99.90;;;;;;5029592;28;20823;-76
2023/09/09 05:31:26;;;;;;;12.73;10.70;;;15.40;99.90;;;;;;5025077;28;20486;-77
2023/09/09 05:33:53;;;;;;;14.00;11.10;;;15.50;99.90;;;;;;5030454;28;20854;-76
2023/09/09 05:36:19;;;;;;;11.83;9.87;;;15.80;99.90;;;;;;5031009;28;20428;-76
2023/09/09 05:38:46;;;;;;;13.00;9.43;;;16.10;99.90;;;;;;5035487;28;20442;-77
2023/09/09 05:41:14;;;;;;;15.87;9.63;;;16.40;99.90;;;;;;5034066;28;20241;-77
2023/09/09 05:43:41;;;;;;;14.60;9.27;;;16.70;99.90;;;;;;5034251;28;20459;-76
2023/09/09 05:46:07;;;;;;;13.27;9.77;;;17.10;99.90;;;;;;5034919;28;20878;-76
2023/09/09 05:48:36;;;;;;;11.97;9.97;;;17.40;99.90;;;;;;5031174;28;20956;-76
2023/09/09 05:51:03;;;;;;;15.37;10.00;;;17.70;99.90;;;;;;5035953;28;20456;-76
2023/09/09 05:53:29;;;;;;;11.47;9.27;;;18.10;99.90;;;;;;5035818;28;20439;-76
2023/09/09 05:55:56;;;;;;;17.70;9.40;;;18.30;99.90;;;;;;5035365;28;20981;-76
2023/09/09 05:58:24;;;;;;;12.00;9.70;;;18.70;99.90;;;;;;5035948;28;20417;-76
2023/09/09 06:00:50;;;;;;;12.50;9.17;;;18.90;99.90;;;;;;5036435;28;20484;-76
2023/09/09 06:03:17;;;;;;;11.23;9.30;;;19.10;99.90;;;;;;5035568;28;20450;-76
2023/09/09 06:05:44;;;;;;;9.97;8.50;;;19.30;99.90;;;;;;5035536;28;20453;-76
2023/09/09 06:08:11;;;;;;;11.43;8.73;;;19.50;99.90;;;;;;5036115;28;20461;-76
2023/09/09 06:10:38;;;;;;;9.90;8.60;;;19.80;99.90;;;;;;5036153;28;20481;-76
2023/09/09 06:13:04;;;;;;;15.77;9.40;;;20.00;99.90;;;;;;5036113;28;20478;-77
2023/09/09 06:15:32;;;;;;;14.70;9.67;;;20.20;99.90;;;;;;5037290;28;20464;-76
2023/09/09 06:18:00;;;;;;;19.30;8.87;;;20.50;99.90;;;;;;5039275;28;20475;-76
2023/09/09 06:20:26;;;;;;;10.67;7.97;;;20.70;99.90;;;;;;5039561;28;20477;-76
2023/09/09 06:22:53;;;;;;;11.20;8.77;;;20.90;99.90;;;;;;5038407;28;20838;-76
2023/09/09 06:25:20;;;;;;;10.80;8.43;;;21.20;99.90;;;;;;5038074;28;20453;-76
2023/09/09 06:27:47;;;;;;;12.93;8.70;;;21.30;99.90;;;;;;5033049;28;20475;-76
2023/09/09 06:30:14;;;;;;;9.80;8.17;;;21.60;99.90;;;;;;5039682;28;20478;-76
2023/09/09 06:32:42;;;;;;;14.03;8.60;;;21.90;99.90;;;;;;5038957;28;20461;-75
2023/09/09 06:35:09;;;;;;;14.50;9.10;;;22.10;99.90;;;;;;5036879;28;20497;-76
2023/09/09 06:37:36;;;;;;;10.80;8.20;;;22.20;99.90;;;;;;5036334;28;20507;-77
2023/09/09 06:40:02;;;;;;;14.57;9.30;;;22.40;99.90;;;;;;5035297;28;20503;-76
2023/09/09 06:42:29;;;;;;;18.43;8.83;;;22.70;99.90;;;;;;5037758;28;20507;-76
2023/09/09 06:44:56;;;;;;;8.87;8.03;;;22.90;99.90;;;;;;5036219;28;20935;-76
2023/09/09 06:47:22;;;;;;;10.37;8.60;;;23.20;99.90;;;;;;5035659;28;20484;-77
2023/09/09 06:49:50;;;;;;;11.27;8.33;;;23.40;99.90;;;;;;5034366;28;20524;-76
2023/09/09 06:52:17;;;;;;;10.33;8.50;;;23.60;99.90;;;;;;5033201;28;21073;-77
2023/09/09 06:54:44;;;;;;;11.00;8.20;;;23.70;99.90;;;;;;5036421;28;20903;-76
2023/09/09 06:57:11;;;;;;;14.63;9.40;;;23.80;99.90;;;;;;5034170;28;20954;-76
2023/09/09 06:59:38;;;;;;;13.23;8.20;;;23.80;99.90;;;;;;5038808;28;20493;-76
2023/09/09 07:02:06;;;;;;;10.53;8.33;;;23.80;99.90;;;;;;5041113;28;20446;-78
2023/09/09 07:04:33;;;;;;;14.37;8.83;;;23.80;99.90;;;;;;5042309;28;21029;-77
2023/09/09 07:07:00;;;;;;;9.67;8.40;;;23.70;99.90;;;;;;5040079;28;20955;-77
2023/09/09 07:09:27;;;;;;;9.60;8.60;;;23.80;99.90;;;;;;5040777;28;20503;-77
2023/09/09 07:11:54;;;;;;;11.73;8.03;;;23.80;99.90;;;;;;5032238;28;20453;-76
2023/09/09 07:14:20;;;;;;;14.03;9.00;;;23.80;99.90;;;;;;5040819;28;20453;-77
2023/09/09 07:16:47;;;;;;;9.67;8.50;;;23.70;99.90;;;;;;5039940;28;20437;-76
2023/09/09 07:19:14;;;;;;;11.17;8.50;;;23.80;99.90;;;;;;5032430;28;20535;-76
2023/09/09 07:21:40;;;;;;;9.77;8.10;;;23.80;99.90;;;;;;5024642;28;20520;-76
2023/09/09 07:24:08;;;;;;;12.70;8.17;;;23.80;99.90;;;;;;5040180;28;21029;-76
2023/09/09 07:26:35;;;;;;;11.37;8.80;;;23.90;99.90;;;;;;5041642;28;20457;-76
2023/09/09 07:29:03;;;;;;;11.50;7.90;;;23.90;99.90;;;;;;5040313;28;20480;-76
2023/09/09 07:31:29;;;;;;;9.00;8.10;;;24.00;99.90;;;;;;5039719;28;20461;-76
2023/09/09 07:33:56;;;;;;;13.30;7.83;;;24.00;99.90;;;;;;5038694;28;20449;-76
2023/09/09 07:36:23;;;;;;;8.77;7.87;;;24.20;99.90;;;;;;5037755;28;20497;-77
2023/09/09 07:38:51;;;;;;;9.57;7.47;;;24.40;99.90;;;;;;5038413;28;20458;-76
2023/09/09 07:41:19;;;;;;;14.70;8.60;;;24.60;99.90;;;;;;5031901;28;20461;-77
2023/09/09 07:43:48;;;;;;;9.40;7.70;;;24.70;99.90;;;;;;5038988;28;20484;-77
2023/09/09 07:46:14;;;;;;;13.20;8.03;;;24.80;99.90;;;;;;5038320;28;20476;-76
2023/09/09 07:48:41;;;;;;;11.50;7.27;;;24.90;99.90;;;;;;5032582;28;20499;-76
2023/09/09 07:51:08;;;;;;;8.80;7.70;;;25.00;99.90;;;;;;5038814;28;20484;-77
2023/09/09 07:53:35;;;;;;;9.23;6.80;;;25.20;99.90;;;;;;5038353;28;20506;-76
2023/09/09 07:56:01;;;;;;;9.50;7.07;;;25.40;99.90;;;;;;5038916;28;20489;-76
2023/09/09 07:58:29;;;;;;;7.50;6.57;;;25.70;99.90;;;;;;5040562;28;20951;-77
2023/09/09 08:01:03;;;;;;;9.60;6.57;;;25.90;99.90;;;;;;5042379;28;20477;-77
2023/09/09 08:03:30;;;;;;;13.90;7.07;;;26.10;99.90;;;;;;5041921;28;20449;-77
2023/09/09 08:06:02;;;;;;;7.53;6.80;;;26.20;99.90;;;;;;5037569;28;20453;-77
2023/09/09 08:08:29;;;;;;;10.63;7.30;;;26.10;99.90;;;;;;5043310;28;20560;-77
2023/09/09 08:10:56;;;;;;;9.63;6.97;;;26.00;99.90;;;;;;5037125;28;20500;-76
2023/09/09 08:13:23;;;;;;;8.90;7.17;;;26.10;99.90;;;;;;5040893;28;20503;-76
2023/09/09 08:15:51;;;;;;;11.47;7.17;;;26.20;99.90;;;;;;5041010;28;20493;-76
2023/09/09 08:18:18;;;;;;;11.73;7.63;;;26.40;99.90;;;;;;5042286;28;20457;-77
2023/09/09 08:20:45;;;;;;;8.50;7.10;;;26.70;99.90;;;;;;5043180;28;20469;-77
2023/09/09 08:23:11;;;;;;;8.80;6.93;;;26.90;99.90;;;;;;5045975;28;20453;-79
2023/09/09 08:25:38;;;;;;;11.70;6.60;;;27.00;99.90;;;;;;5045301;28;20438;-76
2023/09/09 08:28:05;;;;;;;11.40;7.60;;;27.20;99.90;;;;;;5045765;28;20471;-77
2023/09/09 08:30:32;;;;;;;18.47;7.70;;;27.10;99.90;;;;;;5047323;28;20469;-78
2023/09/09 08:33:00;;;;;;;9.57;7.40;;;26.80;99.90;;;;;;5046403;28;20472;-76
2023/09/09 08:35:27;;;;;;;8.03;7.23;;;26.30;99.90;;;;;;5045843;28;20860;-76
2023/09/09 08:37:53;;;;;;;9.27;6.73;;;26.20;99.90;;;;;;5044876;28;20446;-77
2023/09/09 08:40:21;;;;;;;9.53;6.90;;;26.40;99.90;;;;;;5044773;28;20500;-77
2023/09/09 08:42:59;;;;;;;11.20;6.67;;;26.60;99.90;;;;;;5043744;28;20464;-77
2023/09/09 08:45:38;;;;;;;6.87;6.17;;;26.70;99.90;;;;;;5031305;28;20445;-76
2023/09/09 08:48:07;;;;;;;11.53;6.40;;;26.70;99.90;;;;;;5039545;28;21010;-78
2023/09/09 08:50:37;;;;;;;13.50;6.30;;;26.70;99.90;;;;;;5042773;28;20462;-77
2023/09/09 08:53:06;;;;;;;9.30;6.00;;;26.90;99.90;;;;;;5043912;28;20492;-76
2023/09/09 08:55:33;;;;;;;8.03;5.73;;;27.20;99.90;;;;;;5042483;28;20555;-76
2023/09/09 08:58:00;;;;;;;5.43;4.93;;;27.20;99.90;;;;;;5042236;28;20519;-77
2023/09/09 09:00:33;;;;;;;7.60;6.23;;;27.10;99.90;;;;;;5039905;28;20469;-77
2023/09/09 09:03:01;;;;;;;10.63;5.90;;;27.20;99.90;;;;;;5039230;28;20485;-77
2023/09/09 09:05:31;;;;;;;10.00;5.97;;;27.20;99.90;;;;;;5040809;28;20510;-77
2023/09/09 09:07:58;;;;;;;7.33;6.57;;;27.30;99.90;;;;;;5038102;28;20453;-78
2023/09/09 09:10:24;;;;;;;7.57;5.90;;;27.40;99.90;;;;;;5039853;28;20491;-76
2023/09/09 09:12:51;;;;;;;8.43;7.27;;;27.60;99.90;;;;;;5038583;28;20445;-76
2023/09/09 09:15:18;;;;;;;7.77;7.07;;;27.80;99.90;;;;;;5037597;28;20519;-77
2023/09/09 09:17:45;;;;;;;8.37;6.77;;;27.90;99.90;;;;;;5038392;28;20812;-76
2023/09/09 09:20:25;;;;;;;10.17;7.07;;;28.00;99.90;;;;;;5040134;28;20698;-76
2023/09/09 09:22:57;;;;;;;8.10;6.13;;;28.00;99.90;;;;;;5043115;28;20491;-76
2023/09/09 09:25:24;;;;;;;6.73;6.00;;;28.10;99.90;;;;;;5034009;28;20861;-76
2023/09/09 09:27:51;;;;;;;8.00;6.20;;;28.10;99.90;;;;;;5040715;28;20445;-77
2023/09/09 09:30:23;;;;;;;12.10;7.00;;;28.00;99.90;;;;;;5044060;28;20477;-77
2023/09/09 09:32:52;;;;;;;12.43;7.17;;;27.90;99.90;;;;;;5042551;28;20480;-77
2023/09/09 09:35:26;;;;;;;6.50;5.57;;;28.10;99.90;;;;;;5038188;28;20524;-76
2023/09/09 09:37:56;;;;;;;10.00;6.10;;;27.90;99.90;;;;;;5039038;28;20460;-76
2023/09/09 09:40:23;;;;;;;10.03;6.60;;;28.10;99.90;;;;;;5040110;28;21030;-77
2023/09/09 09:42:50;;;;;;;10.67;6.43;;;28.40;99.90;;;;;;5033862;28;20461;-77
2023/09/09 09:45:18;;;;;;;13.20;5.87;;;28.70;99.90;;;;;;5044063;28;20454;-78
2023/09/09 09:47:46;;;;;;;7.13;6.43;;;28.80;99.90;;;;;;5029022;28;20652;-76
2023/09/09 09:50:22;;;;;;;8.50;6.13;;;28.80;99.90;;;;;;5023785;28;20508;-76
2023/09/09 09:52:55;;;;;;;10.20;9.13;;;28.80;99.90;;;;;;5033881;28;20922;-76
2023/09/09 09:55:24;;;;;;;10.00;7.03;;;29.00;99.90;;;;;;5044587;28;20503;-77
2023/09/09 09:57:53;;;;;;;8.67;7.20;;;29.20;99.90;;;;;;5044891;28;20503;-77
2023/09/09 10:00:21;;;;;;;10.47;6.90;;;29.30;99.90;;;;;;5043315;28;20500;-77
2023/09/09 10:02:52;;;;;;;19.43;9.40;;;29.50;99.90;;;;;;5041327;28;20826;-77
2023/09/09 10:05:22;;;;;;;9.17;6.97;;;29.60;99.90;;;;;;5044704;28;20453;-77
2023/09/09 10:07:52;;;;;;;8.63;6.43;;;29.40;99.90;;;;;;5042169;28;20454;-77
2023/09/09 10:10:22;;;;;;;7.63;6.13;;;29.30;99.90;;;;;;5047723;28;20488;-78
2023/09/09 10:12:53;;;;;;;10.47;6.93;;;29.00;99.90;;;;;;5045333;28;20464;-78
2023/09/09 10:15:20;;;;;;;15.03;6.77;;;28.90;99.90;;;;;;5046245;28;20445;-77
2023/09/09 10:17:49;;;;;;;10.10;7.33;;;29.20;99.90;;;;;;5047177;28;20457;-77
2023/09/09 10:20:17;;;;;;;8.13;6.50;;;29.40;99.90;;;;;;5044831;28;20485;-76
2023/09/09 10:22:44;;;;;;;9.07;6.83;;;29.40;99.90;;;;;;5043016;28;20457;-77
2023/09/09 10:25:12;;;;;;;10.10;6.13;;;29.50;99.90;;;;;;5045080;28;20513;-76
2023/09/09 10:27:39;;;;;;;7.60;6.70;;;29.50;99.90;;;;;;5041516;28;20457;-77
2023/09/09 10:30:09;;;;;;;14.20;7.20;;;29.70;99.90;;;;;;5044799;28;20465;-77
2023/09/09 10:32:36;;;;;;;8.20;6.07;;;29.90;99.90;;;;;;5041823;28;20441;-77
2023/09/09 10:35:05;;;;;;;15.70;6.93;;;29.90;99.90;;;;;;5041547;28;20469;-77
2023/09/09 10:37:35;;;;;;;7.80;6.77;;;29.70;99.90;;;;;;5043132;28;20524;-76
2023/09/09 10:40:03;;;;;;;8.63;7.30;;;29.80;99.90;;;;;;5041394;28;20503;-77
2023/09/09 10:42:31;;;;;;;11.57;6.73;;;29.80;99.90;;;;;;5042633;28;20501;-78
2023/09/09 10:45:13;;;;;;;14.00;6.47;;;30.00;99.90;;;;;;5039209;28;20481;-76
2023/09/09 10:47:51;;;;;;;14.37;7.00;;;30.30;99.90;;;;;;5034720;28;20446;-77
2023/09/09 10:50:18;;;;;;;8.17;6.70;;;30.50;99.90;;;;;;5018593;28;20477;-77
2023/09/09 10:52:45;;;;;;;7.80;7.10;;;30.80;99.90;;;;;;5033154;28;20511;-77
2023/09/09 10:55:12;;;;;;;13.13;6.73;;;31.00;99.90;;;;;;5032450;28;20461;-77
2023/09/09 10:57:39;;;;;;;11.10;6.60;;;31.00;99.90;;;;;;5040506;28;20507;-77
2023/09/09 11:00:09;;;;;;;7.63;6.93;;;30.90;99.90;;;;;;5032626;28;20479;-76
2023/09/09 11:02:46;;;;;;;8.90;6.90;;;30.80;99.90;;;;;;5036608;28;20445;-76
2023/09/09 11:05:15;;;;;;;8.27;6.33;;;31.20;99.90;;;;;;5038412;28;20457;-77
2023/09/09 11:07:43;;;;;;;11.67;6.63;;;31.50;99.90;;;;;;5032590;28;20457;-76
2023/09/09 11:10:10;;;;;;;8.33;6.67;;;31.70;99.90;;;;;;5040784;28;20498;-77
2023/09/09 11:12:37;;;;;;;7.03;6.40;;;31.70;99.90;;;;;;5037467;28;20448;-76
2023/09/09 11:15:09;;;;;;;7.43;6.00;;;32.00;99.90;;;;;;5044535;28;20453;-77
2023/09/09 11:17:37;;;;;;;7.40;6.50;;;31.90;99.90;;;;;;5042755;28;21084;-76
2023/09/09 11:20:10;;;;;;;8.50;7.20;;;31.60;99.90;;;;;;5036994;28;20527;-76
2023/09/09 11:22:36;;;;;;;7.30;6.50;;;31.50;99.90;;;;;;5038894;28;20484;-78
2023/09/09 11:25:04;;;;;;;9.93;6.60;;;31.70;99.90;;;;;;5043532;28;20457;-76
2023/09/09 11:27:33;;;;;;;14.37;6.10;;;31.50;99.90;;;;;;5042258;28;20449;-76
2023/09/09 11:30:00;;;;;;;7.53;6.83;;;31.60;99.90;;;;;;5044665;28;20473;-76
2023/09/09 11:32:27;;;;;;;7.20;6.20;;;31.40;99.90;;;;;;5043595;28;20446;-77
2023/09/09 11:34:55;;;;;;;9.93;6.40;;;31.40;99.90;;;;;;5044640;28;20457;-77
2023/09/09 11:37:24;;;;;;;8.67;5.57;;;31.50;99.90;;;;;;5041609;28;20496;-77
2023/09/09 11:39:52;;;;;;;10.87;6.60;;;31.40;99.90;;;;;;5038605;28;20580;-77
2023/09/09 11:42:19;;;;;;;7.50;6.10;;;31.50;99.90;;;;;;5035455;28;20485;-76
2023/09/09 11:44:46;;;;;;;6.70;6.10;;;31.80;99.90;;;;;;5037892;28;20450;-78
2023/09/09 11:47:14;;;;;;;9.83;6.13;;;32.00;99.90;;;;;;5037973;28;20545;-76
2023/09/09 11:49:43;;;;;;;14.80;6.50;;;32.00;99.90;;;;;;5033248;28;20473;-76
2023/09/09 11:52:10;;;;;;;9.13;6.13;;;32.30;99.90;;;;;;5040505;28;20523;-77
2023/09/09 11:54:38;;;;;;;6.20;5.60;;;32.30;99.90;;;;;;5035865;28;20469;-76
2023/09/09 11:57:05;;;;;;;6.17;5.57;;;32.70;99.90;;;;;;5035137;28;20497;-77
2023/09/09 11:59:32;;;;;;;6.80;6.20;;;32.70;99.90;;;;;;5036908;28;20796;-77
2023/09/09 12:01:58;;;;;;;6.80;5.70;;;32.90;99.90;;;;;;5041354;28;20453;-78
2023/09/09 12:04:26;;;;;;;6.00;5.40;;;33.30;99.90;;;;;;5040589;28;20450;-76
2023/09/09 12:06:54;;;;;;;6.70;6.10;;;33.10;99.90;;;;;;5040510;28;20477;-76
2023/09/09 12:09:20;;;;;;;7.47;6.10;;;32.90;99.90;;;;;;5042305;28;20474;-77
2023/09/09 12:11:49;;;;;;;11.20;5.90;;;32.70;99.90;;;;;;5038869;28;20456;-77
2023/09/09 12:14:16;;;;;;;12.93;7.00;;;32.70;99.90;;;;;;5045415;28;20465;-77
2023/09/09 12:16:45;;;;;;;6.93;6.30;;;32.60;99.90;;;;;;5041757;28;20512;-78
2023/09/09 12:19:13;;;;;;;6.20;5.40;;;32.60;99.90;;;;;;5039221;28;20519;-77
2023/09/09 12:21:46;;;;;;;7.27;5.47;;;32.90;99.90;;;;;;5040209;28;20491;-77
2023/09/09 12:24:13;;;;;;;6.73;6.07;;;33.10;99.90;;;;;;5031422;28;20493;-76
2023/09/09 12:26:39;;;;;;;5.60;5.10;;;33.10;99.90;;;;;;5030655;28;20460;-77
2023/09/09 12:29:09;;;;;;;7.63;6.43;;;33.10;99.90;;;;;;5039158;28;20491;-78
2023/09/09 12:31:51;;;;;;;7.00;5.77;;;33.40;99.90;;;;;;5039963;28;20441;-76
2023/09/09 12:34:19;;;;;;;6.83;5.53;;;33.20;99.90;;;;;;5036038;28;20453;-76
2023/09/09 12:36:47;;;;;;;8.10;5.23;;;33.40;99.90;;;;;;5040832;28;20508;-76
2023/09/09 12:39:20;;;;;;;6.30;5.60;;;33.30;99.90;;;;;;5022698;28;20509;-77